createdAt,value
2022-09-17T00:01:36.119Z,9.54
2022-09-17T00:11:45.356Z,9.45
2022-09-17T00:21:53.012Z,9.46
2022-09-17T00:32:00.178Z,9.52
2022-09-17T00:42:10.938Z,9.33
2022-09-17T00:52:18.796Z,9.14
2022-09-17T01:02:26.270Z,8.92
2022-09-17T01:12:47.905Z,8.99
2022-09-17T01:22:58.269Z,9.04
2022-09-17T01:33:12.669Z,9.00
2022-09-17T01:43:18.068Z,9.09
2022-09-17T01:53:26.956Z,9.30
2022-09-17T02:03:36.898Z,9.31
2022-09-17T02:13:42.215Z,9.26
2022-09-17T02:23:50.099Z,9.27
2022-09-17T02:34:02.502Z,9.36
2022-09-17T02:44:08.523Z,9.27
2022-09-17T02:54:19.485Z,9.14
2022-09-17T03:04:28.828Z,9.04
2022-09-17T03:14:36.564Z,8.94
2022-09-17T03:24:43.988Z,8.92
2022-09-17T03:34:50.561Z,8.96
2022-09-17T03:44:56.981Z,8.92
2022-09-17T03:55:05.109Z,8.82
2022-09-17T04:05:13.158Z,8.61
2022-09-17T04:15:20.228Z,8.25
2022-09-17T04:25:27.380Z,7.87
2022-09-17T04:35:33.643Z,7.70
2022-09-17T04:45:40.971Z,7.91
2022-09-17T04:55:48.987Z,8.30
2022-09-17T05:05:56.130Z,8.69
2022-09-17T05:16:03.678Z,8.90
2022-09-17T05:26:10.954Z,10.05
2022-09-17T05:36:18.573Z,10.63
2022-09-17T05:46:26.146Z,10.38
2022-09-17T05:56:33.500Z,10.27
2022-09-17T06:06:41.894Z,10.24
2022-09-17T06:16:49.253Z,10.87
2022-09-17T06:26:56.819Z,11.14
2022-09-17T06:37:04.155Z,11.19
2022-09-17T06:47:11.290Z,12.05
2022-09-17T06:57:18.452Z,13.06
2022-09-17T07:07:25.575Z,12.27
2022-09-17T07:17:33.123Z,11.70
2022-09-17T07:27:40.208Z,11.68
2022-09-17T07:37:47.636Z,12.29
2022-09-17T07:47:54.843Z,13.24
2022-09-17T07:58:02.216Z,14.02
2022-09-17T08:08:09.930Z,13.99
2022-09-17T08:18:17.734Z,13.64
2022-09-17T08:28:25.674Z,14.41
2022-09-17T08:38:38.028Z,14.01
2022-09-17T08:48:50.324Z,14.10
2022-09-17T08:59:00.958Z,14.41
2022-09-17T09:09:14.396Z,14.05
2022-09-17T09:19:21.436Z,14.00
2022-09-17T09:29:26.538Z,13.59
2022-09-17T09:39:41.187Z,13.72
2022-09-17T09:50:08.339Z,13.53
2022-09-17T10:00:29.335Z,13.24
2022-09-17T10:10:38.200Z,13.47
2022-09-17T10:20:58.295Z,14.09
2022-09-17T10:31:10.627Z,14.42
2022-09-17T10:41:22.033Z,14.39
2022-09-17T10:51:29.178Z,14.11
2022-09-17T11:01:35.811Z,14.01
2022-09-17T11:11:43.271Z,13.99
2022-09-17T11:21:50.958Z,14.06
2022-09-17T11:32:03.623Z,13.95
2022-09-17T11:42:12.064Z,13.89
2022-09-17T11:52:25.636Z,13.92
2022-09-17T12:02:35.426Z,14.05
2022-09-17T12:12:50.544Z,14.06
2022-09-17T12:22:58.526Z,14.08
2022-09-17T12:33:24.262Z,13.99
2022-09-17T12:43:44.737Z,13.94
2022-09-17T12:53:59.473Z,14.04
2022-09-17T13:04:15.954Z,14.12
2022-09-17T13:14:25.607Z,14.24
2022-09-17T13:24:34.686Z,14.41
2022-09-17T13:34:41.793Z,14.71
2022-09-17T13:44:53.535Z,14.78
2022-09-17T13:55:01.202Z,15.00
2022-09-17T14:05:35.751Z,15.07
2022-09-17T14:16:24.561Z,15.14
2022-09-17T14:27:04.355Z,14.94
2022-09-17T14:37:10.114Z,14.91
2022-09-17T14:47:18.874Z,14.71
2022-09-17T14:57:23.190Z,14.40
2022-09-17T15:07:30.533Z,14.04
2022-09-17T15:17:37.942Z,13.84
2022-09-17T15:27:47.302Z,13.80
2022-09-17T15:38:21.294Z,13.73
2022-09-17T15:48:39.731Z,13.61
2022-09-17T15:58:53.014Z,13.54
2022-09-17T16:09:01.035Z,13.51
2022-09-17T16:19:08.686Z,13.52
2022-09-17T16:29:15.638Z,13.42
2022-09-17T16:39:22.890Z,13.18
2022-09-17T16:49:30.469Z,13.05
2022-09-17T16:59:37.748Z,12.95
2022-09-17T17:09:45.192Z,12.78
2022-09-17T17:19:53.176Z,12.68
2022-09-17T17:29:59.984Z,12.48
2022-09-17T17:40:09.312Z,12.18
2022-09-17T17:50:16.179Z,12.00
2022-09-17T18:00:23.764Z,11.78
2022-09-17T18:10:43.458Z,11.67
2022-09-17T18:20:51.059Z,11.35
2022-09-17T18:30:59.301Z,11.08
2022-09-17T18:41:05.038Z,10.94
2022-09-17T18:51:13.167Z,10.82
2022-09-17T19:01:22.628Z,10.77
2022-09-17T19:11:30.810Z,10.69
2022-09-17T19:21:37.882Z,10.67
2022-09-17T19:31:45.322Z,10.68
2022-09-17T19:41:52.799Z,10.59
2022-09-17T19:52:00.565Z,10.55
2022-09-17T20:02:07.926Z,10.57
2022-09-17T20:12:15.585Z,10.67
2022-09-17T20:22:23.161Z,10.75
2022-09-17T20:32:30.513Z,10.76
2022-09-17T20:42:37.741Z,10.68
2022-09-17T20:52:45.351Z,10.56
2022-09-17T21:02:54.604Z,10.49
2022-09-17T21:13:01.210Z,10.49
2022-09-17T21:23:08.362Z,10.54
2022-09-17T21:33:22.129Z,10.63
2022-09-17T21:43:31.148Z,10.65
2022-09-17T21:53:39.008Z,10.66
2022-09-17T22:03:47.634Z,10.64
2022-09-17T22:13:59.109Z,10.58
2022-09-17T22:24:05.901Z,10.55
2022-09-17T22:34:14.597Z,10.50
2022-09-17T22:44:22.507Z,10.43
2022-09-17T22:54:29.832Z,10.41
2022-09-17T23:04:36.977Z,10.39
2022-09-17T23:14:44.068Z,10.25
2022-09-17T23:24:51.130Z,10.13
2022-09-17T23:34:58.178Z,10.09
2022-09-17T23:45:06.263Z,10.08
2022-09-17T23:55:12.677Z,10.14
